Time;durP1;ratioP1;P1;durP2;ratioP2;P2;SDS_P1;SDS_P2;PMS_P1;PMS_P2;Temp;Humidity;BMP_temperature;BMP_pressure;BME280_temperature;BME280_humidity;BME280_pressure;Samples;Min_cycle;Max_cycle;Signal;HPM_P1;HPM_P2
2022/12/31 00:00:59;;;;;;;;;;;11.60;99.90;;;;;;4984997;28;20034;-85
2022/12/31 00:03:25;;;;;;;1.10;0.52;;;11.60;99.90;;;;;;4970969;28;19985;-85
2022/12/31 00:05:51;;;;;;;0.30;0.30;;;11.60;99.90;;;;;;5000073;28;20057;-85
2022/12/31 00:08:16;;;;;;;0.50;0.50;;;11.60;99.90;;;;;;4988393;28;20046;-84
2022/12/31 00:10:42;;;;;;;0.40;0.40;;;11.60;99.90;;;;;;4970172;28;20562;-83
2022/12/31 00:13:09;;;;;;;0.68;0.68;;;11.60;99.90;;;;;;4984958;28;20104;-84
2022/12/31 00:15:35;;;;;;;0.63;0.63;;;11.60;99.90;;;;;;4985987;28;20112;-83
2022/12/31 00:18:01;;;;;;;;;;;11.60;99.90;;;;;;4986478;28;20488;-85
2022/12/31 00:20:27;;;;;;;0.93;0.93;;;11.60;99.90;;;;;;4988013;28;19917;-83
2022/12/31 00:22:53;;;;;;;;;;;11.70;99.90;;;;;;4987964;28;20046;-85
2022/12/31 00:25:18;;;;;;;0.38;0.38;;;11.70;99.90;;;;;;4984341;28;20008;-83
2022/12/31 00:27:44;;;;;;;1.40;1.40;;;11.70;99.90;;;;;;4972087;28;20046;-82
2022/12/31 00:30:10;;;;;;;0.75;0.75;;;11.70;99.90;;;;;;4974885;28;20631;-83
2022/12/31 00:32:36;;;;;;;0.30;0.30;;;11.70;99.90;;;;;;4988759;28;20093;-86
2022/12/31 00:35:02;;;;;;;0.38;0.38;;;11.70;99.90;;;;;;4996118;28;20042;-83
2022/12/31 00:37:28;;;;;;;0.38;0.38;;;11.70;99.90;;;;;;4998400;28;20046;-82
2022/12/31 00:39:53;;;;;;;0.43;0.43;;;11.70;99.90;;;;;;4994216;28;20073;-81
2022/12/31 00:42:19;;;;;;;0.60;0.60;;;11.80;99.90;;;;;;5002035;28;20473;-82
2022/12/31 00:44:45;;;;;;;0.95;0.50;;;11.70;99.90;;;;;;4989076;28;20088;-85
2022/12/31 00:47:10;;;;;;;0.30;0.30;;;11.60;99.90;;;;;;4984583;28;20035;-84
2022/12/31 00:49:36;;;;;;;0.32;0.32;;;11.60;99.90;;;;;;4968438;28;20104;-84
2022/12/31 00:52:02;;;;;;;0.55;0.55;;;11.60;99.90;;;;;;4984168;28;20046;-84
2022/12/31 00:54:27;;;;;;;0.30;0.30;;;11.60;99.90;;;;;;4966820;28;20046;-85
2022/12/31 00:56:53;;;;;;;0.30;0.30;;;11.60;99.90;;;;;;4989336;28;20046;-84
2022/12/31 00:59:19;;;;;;;0.75;0.73;;;11.60;99.90;;;;;;4953691;28;20045;-86
2022/12/31 01:01:44;;;;;;;1.35;0.75;;;11.60;99.90;;;;;;4968790;28;20042;-86
2022/12/31 01:04:13;;;;;;;2.15;2.05;;;11.60;99.90;;;;;;4966635;28;20039;-82
2022/12/31 01:06:40;;;;;;;0.40;0.40;;;11.70;99.90;;;;;;4983316;28;20042;-82
2022/12/31 01:09:06;;;;;;;0.65;0.65;;;11.60;99.90;;;;;;4984743;28;20125;-82
2022/12/31 01:11:32;;;;;;;0.30;0.30;;;11.60;99.90;;;;;;4984251;28;20045;-84
2022/12/31 01:14:01;;;;;;;5.93;1.20;;;11.70;99.90;;;;;;4989335;28;20034;-82
2022/12/31 01:16:31;;;;;;;0.75;0.75;;;11.60;99.90;;;;;;5002746;28;20144;-83
2022/12/31 01:18:59;;;;;;;1.63;1.55;;;11.60;99.90;;;;;;4980540;28;20058;-82
2022/12/31 01:21:25;;;;;;;0.30;0.30;;;11.60;99.90;;;;;;4986335;28;20443;-85
2022/12/31 01:23:51;;;;;;;;;;;11.60;99.90;;;;;;4985352;28;21530;-82
2022/12/31 01:26:18;;;;;;;1.90;1.60;;;11.60;99.90;;;;;;4983543;28;20004;-84
2022/12/31 01:28:44;;;;;;;0.63;0.63;;;11.50;99.90;;;;;;4967691;28;20056;-84
2022/12/31 01:31:11;;;;;;;;;;;11.50;99.90;;;;;;4985860;28;20068;-82
2022/12/31 01:33:37;;;;;;;0.63;0.63;;;11.60;99.90;;;;;;4982785;28;19921;-84
2022/12/31 01:36:06;;;;;;;0.70;0.65;;;11.50;99.90;;;;;;4981345;28;20133;-85
2022/12/31 01:38:33;;;;;;;0.40;0.40;;;11.60;99.90;;;;;;4996623;28;20100;-83
2022/12/31 01:40:58;;;;;;;3.10;0.50;;;11.50;99.90;;;;;;4999257;28;20128;-85
2022/12/31 01:43:58;;;;;;;0.30;0.30;;;11.50;99.90;;;;;;4983415;28;20036;-83
2022/12/31 01:46:34;;;;;;;0.38;0.38;;;11.50;99.90;;;;;;5000442;28;20057;-83
2022/12/31 01:49:08;;;;;;;0.60;0.60;;;11.50;99.90;;;;;;4981707;28;20052;-84
2022/12/31 01:51:35;;;;;;;0.40;0.40;;;11.50;99.90;;;;;;4982325;28;20030;-84
2022/12/31 01:54:04;;;;;;;0.40;0.40;;;11.50;99.90;;;;;;4982363;28;20188;-83
2022/12/31 01:56:30;;;;;;;0.63;0.63;;;11.50;99.90;;;;;;4998199;28;20054;-83
2022/12/31 01:58:57;;;;;;;;;;;11.50;99.90;;;;;;4983832;28;20046;-83
2022/12/31 02:01:29;;;;;;;0.30;0.30;;;11.50;99.90;;;;;;4998829;28;20165;-87
2022/12/31 02:03:56;;;;;;;3.40;0.60;;;11.50;99.90;;;;;;4984191;28;20042;-81
2022/12/31 02:06:50;;;;;;;0.75;0.60;;;11.50;99.90;;;;;;4986621;28;20414;-83
2022/12/31 02:09:16;;;;;;;1.15;1.05;;;11.50;99.90;;;;;;4978324;28;20067;-84
2022/12/31 02:11:42;;;;;;;0.40;0.40;;;11.50;99.90;;;;;;4983380;28;20050;-86
2022/12/31 02:14:15;;;;;;;0.40;0.40;;;11.50;99.90;;;;;;4980038;28;20042;-87
2022/12/31 02:17:12;;;;;;;0.70;0.70;;;11.50;99.90;;;;;;4988504;28;20085;-82
2022/12/31 02:20:03;;;;;;;0.57;0.57;;;11.60;99.90;;;;;;4979979;28;20050;-80
2022/12/31 02:23:02;;;;;;;0.60;0.60;;;11.60;99.90;;;;;;4979615;28;20039;-85
2022/12/31 02:25:46;;;;;;;0.40;0.40;;;11.50;99.90;;;;;;4964035;28;20054;-84
2022/12/31 02:28:59;;;;;;;0.30;0.30;;;11.60;99.90;;;;;;4982108;28;20076;-81
2022/12/31 02:31:32;;;;;;;0.88;0.88;;;11.60;99.90;;;;;;4981497;28;20833;-82
2022/12/31 02:34:10;;;;;;;0.40;0.40;;;11.60;99.90;;;;;;4984269;28;20050;-83
2022/12/31 02:36:41;;;;;;;0.98;0.60;;;11.60;99.90;;;;;;4997470;28;20066;-84
2022/12/31 02:39:09;;;;;;;0.40;0.40;;;11.50;99.90;;;;;;4985955;28;20057;-81
2022/12/31 02:41:49;;;;;;;0.25;0.25;;;11.30;99.90;;;;;;4981953;28;20046;-82
2022/12/31 02:44:25;;;;;;;0.40;0.40;;;11.50;99.90;;;;;;4980948;28;20835;-80
2022/12/31 02:47:07;;;;;;;3.95;1.38;;;11.50;99.90;;;;;;4978306;28;20375;-81
2022/12/31 02:49:37;;;;;;;0.30;0.30;;;11.50;99.90;;;;;;4998304;28;20483;-82
2022/12/31 02:52:13;;;;;;;0.50;0.43;;;11.50;99.90;;;;;;4978051;28;20565;-81
2022/12/31 02:54:54;;;;;;;1.58;1.25;;;11.50;99.90;;;;;;4979876;28;20034;-80
2022/12/31 02:57:32;;;;;;;0.30;0.30;;;11.50;99.90;;;;;;4978343;28;20436;-82
2022/12/31 03:02:51;;;;;;;0.38;0.38;;;11.50;99.90;;;;;;4977693;28;20046;-80
2022/12/31 03:05:21;;;;;;;0.38;0.38;;;11.50;99.90;;;;;;4981381;28;20275;-83
2022/12/31 03:07:47;;;;;;;0.40;0.40;;;11.50;99.90;;;;;;4979882;28;21682;-83
2022/12/31 03:10:14;;;;;;;1.95;0.32;;;11.50;99.90;;;;;;4978463;28;20137;-81
2022/12/31 03:12:48;;;;;;;0.65;0.65;;;11.50;99.90;;;;;;4979145;28;20650;-80
2022/12/31 03:15:21;;;;;;;0.40;0.40;;;11.50;99.90;;;;;;4981830;28;20530;-81
2022/12/31 03:18:07;;;;;;;3.00;0.90;;;11.50;99.90;;;;;;4980103;28;20054;-83
2022/12/31 03:23:41;;;;;;;0.40;0.40;;;11.50;99.90;;;;;;4999489;28;20238;-83
2022/12/31 03:26:09;;;;;;;0.50;0.50;;;11.50;99.90;;;;;;4983910;28;20080;-81
2022/12/31 03:28:36;;;;;;;0.40;0.40;;;11.40;99.90;;;;;;4980680;28;20389;-83
2022/12/31 03:31:03;;;;;;;0.50;0.50;;;11.40;99.90;;;;;;4994594;28;20058;-84
2022/12/31 03:33:34;;;;;;;0.47;0.47;;;11.40;99.90;;;;;;4963704;28;20050;-80
2022/12/31 03:36:03;;;;;;;0.28;0.28;;;11.40;99.90;;;;;;4981854;28;20125;-85
2022/12/31 03:38:29;;;;;;;0.55;0.55;;;11.40;99.90;;;;;;4979556;28;20480;-83
2022/12/31 03:40:56;;;;;;;0.70;0.70;;;11.30;99.90;;;;;;4982657;28;20038;-84
2022/12/31 03:43:23;;;;;;;0.50;0.50;;;11.30;99.90;;;;;;4999316;28;20133;-82
2022/12/31 03:45:53;;;;;;;0.30;0.30;;;11.20;99.90;;;;;;4966110;28;20046;-80
2022/12/31 03:48:20;;;;;;;0.35;0.35;;;11.20;99.90;;;;;;4979853;28;20178;-80
2022/12/31 03:50:46;;;;;;;0.20;0.20;;;11.20;99.90;;;;;;4980479;28;20042;-80
2022/12/31 03:53:12;;;;;;;0.40;0.40;;;11.20;99.90;;;;;;4982044;28;20045;-79
2022/12/31 03:55:38;;;;;;;9.25;0.57;;;11.10;99.90;;;;;;4979133;28;20046;-81
2022/12/31 03:58:04;;;;;;;0.40;0.40;;;11.10;99.90;;;;;;4979424;28;20038;-81
2022/12/31 04:00:29;;;;;;;0.32;0.32;;;11.00;99.90;;;;;;4980541;28;20055;-81
2022/12/31 04:02:55;;;;;;;0.50;0.50;;;11.00;99.90;;;;;;4980465;28;20471;-82
2022/12/31 04:05:22;;;;;;;0.30;0.30;;;11.00;99.90;;;;;;4995934;28;20050;-81
2022/12/31 04:07:48;;;;;;;0.30;0.30;;;11.00;99.90;;;;;;4980520;28;20057;-81
2022/12/31 04:10:16;;;;;;;0.40;0.40;;;11.00;99.90;;;;;;4966073;28;20046;-82
2022/12/31 04:12:42;;;;;;;0.30;0.30;;;11.00;99.90;;;;;;4986405;28;20380;-80
2022/12/31 04:15:10;;;;;;;0.43;0.43;;;11.00;99.90;;;;;;4966043;28;20046;-81
2022/12/31 04:17:36;;;;;;;0.30;0.30;;;11.00;99.90;;;;;;5000358;28;20058;-80
2022/12/31 04:20:03;;;;;;;1.35;0.50;;;11.00;99.90;;;;;;4969608;28;20169;-81
2022/12/31 04:22:28;;;;;;;0.40;0.40;;;10.90;99.90;;;;;;4983638;28;20046;-81
2022/12/31 04:24:54;;;;;;;0.40;0.40;;;10.90;99.90;;;;;;4983528;28;20583;-84
2022/12/31 04:27:20;;;;;;;0.30;0.30;;;10.90;99.90;;;;;;4987202;28;20046;-83
2022/12/31 04:29:45;;;;;;;0.40;0.40;;;10.90;99.90;;;;;;4981319;28;20050;-84
2022/12/31 04:32:11;;;;;;;1.10;1.10;;;10.90;99.90;;;;;;4984658;28;20092;-82
2022/12/31 04:34:37;;;;;;;0.40;0.40;;;10.90;99.90;;;;;;4967653;28;20050;-84
2022/12/31 04:37:03;;;;;;;0.30;0.30;;;10.90;99.90;;;;;;4981914;28;20046;-87
2022/12/31 04:39:28;;;;;;;;;;;10.90;99.90;;;;;;4985520;28;20050;-85
2022/12/31 04:41:54;;;;;;;0.30;0.30;;;10.90;99.90;;;;;;4985452;28;19922;-85
2022/12/31 04:44:20;;;;;;;0.40;0.40;;;10.80;99.90;;;;;;4965774;28;20500;-83
2022/12/31 04:46:46;;;;;;;0.40;0.40;;;10.90;99.90;;;;;;4986188;28;20038;-83
2022/12/31 04:49:12;;;;;;;0.40;0.40;;;10.90;99.90;;;;;;4982670;28;20473;-85
2022/12/31 04:51:38;;;;;;;0.40;0.40;;;10.80;99.90;;;;;;4985209;28;20074;-85
2022/12/31 04:54:04;;;;;;;0.65;0.63;;;10.80;99.90;;;;;;4983162;28;20076;-85
2022/12/31 04:56:30;;;;;;;0.40;0.40;;;10.80;99.90;;;;;;4984210;28;20042;-85
2022/12/31 04:58:58;;;;;;;0.30;0.30;;;10.70;99.90;;;;;;4970982;28;20030;-84
2022/12/31 05:01:24;;;;;;;0.30;0.30;;;10.70;99.90;;;;;;4983586;28;20050;-84
2022/12/31 05:03:50;;;;;;;0.32;0.32;;;10.70;99.90;;;;;;4988384;28;20141;-85
2022/12/31 05:06:20;;;;;;;0.50;0.50;;;10.70;99.90;;;;;;4989055;28;20120;-86
2022/12/31 05:08:47;;;;;;;0.30;0.30;;;10.70;99.90;;;;;;4965643;28;20043;-85
2022/12/31 05:11:13;;;;;;;0.30;0.30;;;10.70;99.90;;;;;;4968516;28;20152;-82
2022/12/31 05:13:39;;;;;;;0.20;0.20;;;10.70;99.90;;;;;;4984735;28;20078;-83
2022/12/31 05:16:05;;;;;;;0.52;0.52;;;10.70;99.90;;;;;;4984456;28;20053;-83
2022/12/31 05:18:31;;;;;;;;;;;10.60;99.90;;;;;;4985362;28;20508;-87
2022/12/31 05:20:57;;;;;;;0.40;0.40;;;10.70;99.90;;;;;;4969718;28;19922;-84
2022/12/31 05:23:23;;;;;;;0.40;0.40;;;10.70;99.90;;;;;;4984509;28;20041;-84
2022/12/31 05:25:48;;;;;;;;;;;10.60;99.90;;;;;;4990537;28;20077;-84
2022/12/31 05:28:15;;;;;;;0.25;0.25;;;10.60;99.90;;;;;;4985320;28;19917;-86
2022/12/31 05:30:41;;;;;;;0.57;0.57;;;10.60;99.90;;;;;;4984218;28;20050;-85
2022/12/31 05:33:07;;;;;;;0.50;0.50;;;10.50;99.90;;;;;;4982647;28;20054;-84
2022/12/31 05:35:33;;;;;;;0.30;0.30;;;10.50;99.90;;;;;;4988213;28;20113;-84
2022/12/31 05:38:00;;;;;;;0.77;0.77;;;10.60;99.90;;;;;;4983966;28;20089;-84
2022/12/31 05:40:26;;;;;;;1.05;1.05;;;10.50;99.90;;;;;;4986025;28;20060;-85
2022/12/31 05:42:52;;;;;;;0.50;0.50;;;10.60;99.90;;;;;;4968096;28;20082;-85
2022/12/31 05:45:18;;;;;;;1.40;1.30;;;10.60;99.90;;;;;;4970105;28;20140;-86
2022/12/31 05:47:44;;;;;;;;;;;10.60;99.90;;;;;;4988229;28;20050;-87
2022/12/31 05:50:14;;;;;;;0.40;0.40;;;10.60;99.90;;;;;;4987943;28;19918;-87
2022/12/31 05:52:40;;;;;;;0.30;0.30;;;10.60;99.90;;;;;;4995870;28;20042;-83
2022/12/31 05:55:06;;;;;;;0.30;0.30;;;10.60;99.90;;;;;;4985864;28;20046;-83
2022/12/31 05:57:31;;;;;;;0.40;0.40;;;10.60;99.90;;;;;;4982944;28;20038;-83
2022/12/31 05:59:57;;;;;;;0.60;0.60;;;10.70;99.90;;;;;;4999109;28;20048;-81
2022/12/31 06:02:23;;;;;;;1.67;1.65;;;10.70;99.90;;;;;;4973980;28;20113;-84
2022/12/31 06:04:49;;;;;;;0.40;0.40;;;10.60;99.90;;;;;;4984003;28;20046;-85
2022/12/31 06:07:14;;;;;;;0.40;0.40;;;10.70;99.90;;;;;;4986482;28;20050;-83
2022/12/31 06:09:40;;;;;;;0.20;0.20;;;10.60;99.90;;;;;;4969931;28;20128;-86
2022/12/31 06:12:06;;;;;;;1.95;1.85;;;10.60;99.90;;;;;;4985204;28;20116;-85
2022/12/31 06:14:32;;;;;;;0.50;0.50;;;10.60;99.90;;;;;;4984176;28;20042;-85
2022/12/31 06:16:59;;;;;;;0.47;0.47;;;10.60;99.90;;;;;;4984205;28;20412;-84
2022/12/31 06:19:25;;;;;;;0.40;0.40;;;10.60;99.90;;;;;;4999900;28;20053;-83
2022/12/31 06:21:50;;;;;;;0.45;0.45;;;10.60;99.90;;;;;;4967124;28;20050;-83
2022/12/31 06:24:16;;;;;;;0.40;0.40;;;10.50;99.90;;;;;;4987869;28;20514;-82
2022/12/31 06:26:42;;;;;;;0.30;0.30;;;10.50;99.90;;;;;;4987839;28;20034;-83
2022/12/31 06:29:09;;;;;;;0.32;0.32;;;10.50;99.90;;;;;;4985371;28;20060;-84
2022/12/31 06:31:35;;;;;;;0.60;0.60;;;10.40;99.90;;;;;;4996779;28;20137;-83
2022/12/31 06:34:00;;;;;;;0.50;0.50;;;10.40;99.90;;;;;;4985175;28;20129;-84
2022/12/31 06:36:27;;;;;;;0.40;0.40;;;10.40;99.90;;;;;;5000180;28;20038;-84
2022/12/31 06:38:52;;;;;;;;;;;10.30;99.90;;;;;;4985804;28;20038;-83
2022/12/31 06:41:18;;;;;;;0.40;0.40;;;10.30;99.90;;;;;;4985773;28;19924;-83
2022/12/31 06:43:44;;;;;;;0.30;0.30;;;10.30;99.90;;;;;;4967307;28;20042;-83
2022/12/31 06:46:13;;;;;;;0.32;0.32;;;10.20;99.90;;;;;;4982908;28;20064;-86
2022/12/31 06:48:41;;;;;;;0.30;0.30;;;10.10;99.90;;;;;;4979035;28;20392;-86
2022/12/31 06:51:12;;;;;;;0.30;0.30;;;10.10;99.90;;;;;;4983111;28;20132;-85
2022/12/31 06:53:39;;;;;;;0.40;0.40;;;10.00;99.90;;;;;;4984874;28;20085;-86
2022/12/31 06:56:06;;;;;;;;;;;10.00;99.90;;;;;;4985657;28;20038;-85
2022/12/31 06:58:32;;;;;;;0.40;0.40;;;9.90;99.90;;;;;;4982449;28;19918;-85
2022/12/31 07:01:03;;;;;;;;;;;9.90;99.90;;;;;;4979184;28;20046;-83
2022/12/31 07:03:55;;;;;;;0.40;0.40;;;9.90;99.90;;;;;;4989124;28;19928;-83
2022/12/31 07:06:40;;;;;;;0.40;0.40;;;9.80;99.90;;;;;;4997368;28;20479;-85
2022/12/31 07:09:34;;;;;;;0.43;0.43;;;9.80;99.90;;;;;;5001133;28;20369;-82
2022/12/31 07:12:25;;;;;;;0.43;0.43;;;9.80;99.90;;;;;;4962801;28;20054;-83
2022/12/31 07:14:56;;;;;;;0.30;0.30;;;9.80;99.90;;;;;;4970252;28;20512;-83
2022/12/31 07:17:30;;;;;;;0.40;0.40;;;9.80;99.90;;;;;;4985837;28;20047;-83
2022/12/31 07:20:06;;;;;;;0.40;0.40;;;9.80;99.90;;;;;;4985320;28;20053;-82
2022/12/31 07:22:32;;;;;;;0.40;0.40;;;9.90;99.90;;;;;;4986059;28;20504;-84
2022/12/31 07:24:58;;;;;;;0.30;0.30;;;9.90;99.90;;;;;;4986831;28;20043;-83
2022/12/31 07:27:36;;;;;;;0.40;0.40;;;9.90;99.90;;;;;;4982626;28;20108;-83
2022/12/31 07:30:13;;;;;;;0.65;0.65;;;9.90;99.90;;;;;;4998852;28;20050;-83
2022/12/31 07:33:03;;;;;;;0.50;0.50;;;10.00;99.90;;;;;;4997897;28;20069;-84
2022/12/31 07:35:43;;;;;;;0.40;0.40;;;10.10;99.90;;;;;;4982928;28;20038;-83
2022/12/31 07:38:38;;;;;;;0.32;0.32;;;10.10;99.90;;;;;;4980170;28;20034;-83
2022/12/31 07:41:31;;;;;;;0.30;0.30;;;10.20;99.90;;;;;;4989002;28;20043;-85
2022/12/31 07:44:04;;;;;;;0.30;0.30;;;10.10;99.90;;;;;;4984177;28;20050;-85
2022/12/31 07:46:39;;;;;;;0.28;0.28;;;10.20;99.90;;;;;;4990051;28;20049;-85
2022/12/31 07:49:10;;;;;;;0.32;0.32;;;10.20;99.90;;;;;;4990315;28;20054;-85
2022/12/31 07:51:36;;;;;;;0.30;0.30;;;10.20;99.90;;;;;;5003728;28;20117;-84
2022/12/31 07:54:02;;;;;;;0.40;0.40;;;10.20;99.90;;;;;;4973804;28;20053;-84
2022/12/31 07:56:28;;;;;;;0.50;0.50;;;10.20;99.90;;;;;;4994240;28;20047;-84
2022/12/31 07:58:54;;;;;;;;;;;10.10;99.90;;;;;;4986357;28;20400;-84
2022/12/31 08:01:37;;;;;;;0.30;0.30;;;10.10;99.90;;;;;;4974230;28;19924;-85
2022/12/31 08:04:40;;;;;;;0.40;0.40;;;10.20;99.90;;;;;;5016274;28;20042;-85
2022/12/31 08:07:20;;;;;;;0.40;0.40;;;10.10;99.90;;;;;;4998949;28;20196;-85
2022/12/31 08:09:52;;;;;;;0.50;0.50;;;10.10;99.90;;;;;;4985978;28;20480;-87
2022/12/31 08:12:19;;;;;;;0.30;0.30;;;10.10;99.90;;;;;;4999323;28;20043;-86
2022/12/31 08:14:46;;;;;;;0.50;0.50;;;10.10;99.90;;;;;;4974155;28;20040;-86
2022/12/31 08:17:15;;;;;;;0.30;0.30;;;10.10;99.90;;;;;;4975321;28;20058;-88
2022/12/31 08:19:40;;;;;;;0.50;0.50;;;10.10;99.90;;;;;;4990721;28;20452;-87
2022/12/31 08:22:44;;;;;;;0.50;0.50;;;10.10;99.90;;;;;;4997801;28;20039;-86
2022/12/31 08:25:34;;;;;;;0.30;0.30;;;10.10;99.90;;;;;;4989653;28;20077;-86
2022/12/31 08:28:06;;;;;;;0.68;0.68;;;10.10;99.90;;;;;;4976259;28;20870;-85
2022/12/31 08:31:02;;;;;;;0.77;0.77;;;10.20;99.90;;;;;;4992094;28;20038;-86
2022/12/31 08:34:04;;;;;;;0.50;0.50;;;10.20;99.90;;;;;;4989258;28;20038;-88
2022/12/31 08:37:07;;;;;;;0.40;0.40;;;10.20;99.90;;;;;;4972273;28;20049;-85
2022/12/31 08:40:11;;;;;;;0.40;0.40;;;10.20;99.90;;;;;;4966063;28;20133;-87
2022/12/31 08:43:11;;;;;;;0.43;0.43;;;10.30;99.90;;;;;;4987827;28;20134;-86
2022/12/31 08:45:40;;;;;;;0.30;0.30;;;10.30;99.90;;;;;;4986669;28;20345;-85
2022/12/31 08:48:42;;;;;;;0.30;0.30;;;10.30;99.90;;;;;;4987819;28;20046;-90
2022/12/31 08:51:13;;;;;;;0.40;0.40;;;10.40;99.90;;;;;;4985634;28;20404;-86
2022/12/31 08:53:40;;;;;;;0.60;0.60;;;10.40;99.90;;;;;;5001763;28;20262;-85
2022/12/31 08:56:28;;;;;;;0.30;0.30;;;10.50;99.90;;;;;;4986165;28;20177;-83
2022/12/31 08:59:16;;;;;;;0.40;0.40;;;10.50;99.90;;;;;;5001420;28;20077;-87
2022/12/31 09:02:02;;;;;;;0.30;0.30;;;10.60;99.90;;;;;;4971298;28;20396;-86
2022/12/31 09:04:57;;;;;;;0.40;0.40;;;10.70;99.90;;;;;;4985867;28;20054;-87
2022/12/31 09:07:36;;;;;;;0.30;0.30;;;10.80;99.90;;;;;;4973021;28;20049;-86
2022/12/31 09:10:25;;;;;;;0.20;0.20;;;10.80;99.90;;;;;;4970711;28;20055;-86
2022/12/31 09:13:01;;;;;;;0.55;0.55;;;11.00;99.90;;;;;;4989344;28;20082;-86
2022/12/31 09:15:46;;;;;;;0.40;0.40;;;11.00;99.90;;;;;;4972364;28;20047;-86
2022/12/31 09:18:13;;;;;;;0.30;0.30;;;11.10;99.90;;;;;;4987391;28;20062;-86
2022/12/31 09:20:39;;;;;;;0.75;0.75;;;11.20;99.90;;;;;;4980117;28;20544;-86
2022/12/31 09:23:05;;;;;;;0.40;0.40;;;11.30;99.90;;;;;;5011035;28;20074;-85
2022/12/31 09:25:32;;;;;;;0.60;0.60;;;11.40;99.90;;;;;;5000211;28;20046;-87
2022/12/31 09:28:06;;;;;;;0.32;0.32;;;11.50;99.90;;;;;;4993650;28;20508;-86
2022/12/31 09:30:47;;;;;;;0.30;0.30;;;11.80;99.90;;;;;;4990900;28;20042;-86
2022/12/31 09:33:41;;;;;;;0.28;0.28;;;11.60;99.90;;;;;;4986786;28;20056;-87
2022/12/31 09:36:15;;;;;;;0.75;0.75;;;11.70;99.90;;;;;;5010506;28;20116;-85
2022/12/31 09:38:53;;;;;;;0.22;0.22;;;11.80;99.90;;;;;;4990645;28;20070;-86
2022/12/31 09:42:03;;;;;;;0.45;0.45;;;11.90;99.90;;;;;;4989703;28;20399;-86
2022/12/31 09:44:50;;;;;;;0.30;0.30;;;12.00;99.90;;;;;;4987830;28;20046;-85
2022/12/31 09:47:37;;;;;;;0.38;0.38;;;12.10;99.90;;;;;;4979165;28;20396;-85
2022/12/31 09:50:03;;;;;;;0.40;0.40;;;12.10;99.90;;;;;;5001476;28;20209;-87
2022/12/31 09:53:04;;;;;;;0.30;0.30;;;12.10;99.90;;;;;;4993880;28;20057;-86
2022/12/31 09:55:55;;;;;;;0.22;0.22;;;12.20;99.90;;;;;;4959816;28;20050;-86
2022/12/31 09:58:27;;;;;;;0.32;0.32;;;12.30;99.90;;;;;;4993612;28;20074;-83
2022/12/31 10:01:11;;;;;;;0.40;0.40;;;12.40;99.90;;;;;;5010715;28;20085;-84
2022/12/31 10:04:14;;;;;;;0.40;0.40;;;12.40;99.90;;;;;;5000316;28;20396;-84
2022/12/31 10:07:05;;;;;;;0.50;0.50;;;12.50;99.90;;;;;;4976940;28;20042;-85
2022/12/31 10:09:55;;;;;;;0.30;0.30;;;12.50;99.90;;;;;;5003672;28;20054;-85
2022/12/31 10:12:39;;;;;;;0.40;0.40;;;12.50;99.90;;;;;;4984651;28;20065;-85
2022/12/31 10:15:11;;;;;;;0.50;0.50;;;12.60;99.90;;;;;;4972406;28;20074;-85
2022/12/31 10:18:11;;;;;;;0.50;0.50;;;12.60;99.90;;;;;;4986985;28;20065;-85
2022/12/31 10:20:43;;;;;;;0.30;0.30;;;12.70;99.90;;;;;;4978701;28;20092;-84
2022/12/31 10:23:39;;;;;;;0.68;0.52;;;12.70;99.90;;;;;;4974639;28;20038;-86
2022/12/31 10:26:22;;;;;;;0.30;0.30;;;12.90;99.90;;;;;;5005420;28;20034;-83
2022/12/31 10:28:58;;;;;;;0.30;0.30;;;12.90;99.90;;;;;;5003971;28;20052;-84
2022/12/31 10:31:30;;;;;;;0.30;0.30;;;13.00;99.90;;;;;;4974796;28;20880;-85
2022/12/31 10:34:04;;;;;;;0.25;0.25;;;13.10;99.90;;;;;;4988491;28;20538;-86
2022/12/31 10:36:51;;;;;;;0.60;0.60;;;13.10;99.90;;;;;;5007206;28;20048;-83
2022/12/31 10:40:00;;;;;;;0.30;0.30;;;13.10;99.90;;;;;;4983365;28;20060;-85
2022/12/31 10:43:01;;;;;;;0.88;0.57;;;13.10;99.90;;;;;;4992018;28;20060;-85
2022/12/31 10:45:57;;;;;;;0.40;0.40;;;13.10;99.90;;;;;;4952672;28;20058;-83
2022/12/31 10:48:29;;;;;;;0.30;0.30;;;13.20;99.90;;;;;;4987957;28;20130;-83
2022/12/31 10:51:17;;;;;;;0.20;0.20;;;13.20;99.90;;;;;;4988924;28;20042;-83
2022/12/31 10:54:12;;;;;;;0.30;0.30;;;13.30;99.90;;;;;;4973068;28;20042;-84
2022/12/31 10:56:40;;;;;;;0.40;0.40;;;13.30;99.90;;;;;;4987149;28;20046;-85
2022/12/31 10:59:43;;;;;;;0.20;0.20;;;13.40;99.90;;;;;;4986419;28;20046;-86
2022/12/31 11:02:47;;;;;;;1.48;1.38;;;13.40;99.90;;;;;;4982798;28;20046;-84
2022/12/31 11:05:58;;;;;;;0.30;0.30;;;13.40;99.90;;;;;;4988720;28;20042;-84
2022/12/31 11:08:45;;;;;;;0.20;0.20;;;13.40;99.90;;;;;;4971425;28;20042;-85
2022/12/31 11:11:14;;;;;;;0.40;0.40;;;13.40;99.90;;;;;;4992640;28;20042;-85
2022/12/31 11:14:01;;;;;;;0.30;0.30;;;13.40;99.90;;;;;;4984922;28;20082;-85
2022/12/31 11:16:52;;;;;;;0.30;0.30;;;13.50;99.90;;;;;;4980727;28;20069;-86
2022/12/31 11:19:42;;;;;;;0.30;0.30;;;13.50;99.90;;;;;;4986193;28;20041;-80
2022/12/31 11:22:08;;;;;;;0.40;0.40;;;13.50;99.90;;;;;;5005455;28;20042;-83
2022/12/31 11:24:57;;;;;;;0.47;0.47;;;13.60;99.90;;;;;;5011396;28;20085;-84
2022/12/31 11:27:51;;;;;;;0.30;0.30;;;13.60;99.90;;;;;;4999804;28;20049;-80
2022/12/31 11:30:40;;;;;;;0.98;0.98;;;13.70;99.90;;;;;;5000919;28;20129;-82
2022/12/31 11:33:40;;;;;;;0.30;0.30;;;13.70;99.90;;;;;;4998923;28;20049;-81
2022/12/31 11:36:21;;;;;;;0.30;0.30;;;13.70;99.90;;;;;;4995565;28;20038;-86
2022/12/31 11:38:58;;;;;;;0.40;0.40;;;13.70;99.90;;;;;;4991320;28;20046;-85
2022/12/31 11:41:34;;;;;;;0.30;0.30;;;13.70;99.90;;;;;;4989817;28;20528;-85
2022/12/31 11:44:38;;;;;;;0.30;0.30;;;13.70;99.90;;;;;;4990860;28;20071;-84
2022/12/31 11:47:41;;;;;;;0.20;0.20;;;13.70;99.90;;;;;;4987731;28;20046;-84
2022/12/31 11:50:37;;;;;;;1.48;1.42;;;13.70;99.90;;;;;;5005013;28;20065;-84
2022/12/31 11:53:37;;;;;;;0.35;0.35;;;13.70;99.90;;;;;;5003263;28;20052;-83
2022/12/31 11:56:19;;;;;;;0.30;0.30;;;13.70;99.90;;;;;;4995717;28;20488;-81
2022/12/31 11:58:53;;;;;;;0.70;0.70;;;13.60;99.90;;;;;;4990056;28;20121;-82
2022/12/31 12:01:33;;;;;;;0.30;0.30;;;13.50;99.90;;;;;;5004747;28;20050;-83
2022/12/31 12:04:00;;;;;;;0.32;0.32;;;13.50;99.90;;;;;;4984497;28;20404;-84
2022/12/31 12:06:31;;;;;;;0.43;0.43;;;13.50;99.90;;;;;;4988188;28;20050;-83
2022/12/31 12:09:13;;;;;;;0.40;0.40;;;13.50;99.90;;;;;;4985422;28;20172;-83
2022/12/31 12:11:39;;;;;;;0.25;0.25;;;13.60;99.90;;;;;;4986567;28;20397;-82
2022/12/31 12:14:21;;;;;;;;;;;13.60;99.90;;;;;;4989104;28;20053;-83
2022/12/31 12:16:54;;;;;;;0.30;0.30;;;13.50;99.90;;;;;;4988883;28;20093;-83
2022/12/31 12:19:24;;;;;;;0.30;0.30;;;13.50;99.90;;;;;;4989608;28;20039;-85
2022/12/31 12:21:51;;;;;;;0.20;0.20;;;13.40;99.90;;;;;;4973174;28;21010;-83
2022/12/31 12:24:35;;;;;;;0.40;0.40;;;13.40;99.90;;;;;;4974279;28;20042;-82
2022/12/31 12:27:01;;;;;;;0.63;0.63;;;13.40;99.90;;;;;;4988777;28;20073;-83
2022/12/31 12:29:34;;;;;;;0.68;0.60;;;13.30;99.90;;;;;;4986803;28;20089;-85
2022/12/31 12:32:06;;;;;;;0.65;0.52;;;13.30;99.90;;;;;;4988628;28;20432;-83
2022/12/31 12:34:35;;;;;;;0.40;0.40;;;13.30;99.90;;;;;;4986410;28;20042;-83
2022/12/31 12:37:01;;;;;;;0.30;0.30;;;13.30;99.90;;;;;;4968552;28;20042;-82
2022/12/31 12:39:31;;;;;;;0.57;0.45;;;13.30;99.90;;;;;;4990197;28;20045;-84
2022/12/31 12:42:11;;;;;;;2.15;2.05;;;13.30;99.90;;;;;;4987557;28;20066;-84
2022/12/31 12:44:38;;;;;;;0.50;0.50;;;13.40;99.90;;;;;;4985860;28;20113;-83
2022/12/31 12:47:07;;;;;;;0.30;0.30;;;13.30;99.90;;;;;;4969341;28;20042;-82
2022/12/31 12:49:59;;;;;;;0.40;0.40;;;13.40;99.90;;;;;;4985413;28;20031;-83
2022/12/31 12:52:52;;;;;;;0.30;0.30;;;13.40;99.90;;;;;;5002684;28;20054;-83
2022/12/31 12:56:01;;;;;;;0.35;0.35;;;13.40;99.90;;;;;;4987283;28;20132;-82
2022/12/31 12:58:42;;;;;;;0.30;0.30;;;13.40;99.90;;;;;;4988892;28;20813;-83
2022/12/31 13:01:23;;;;;;;0.17;0.17;;;13.40;99.90;;;;;;5001997;28;20042;-85
2022/12/31 13:04:17;;;;;;;0.68;0.68;;;13.40;99.90;;;;;;4986237;28;20096;-85
2022/12/31 13:06:51;;;;;;;0.93;0.93;;;13.40;99.90;;;;;;4986753;28;20153;-83
2022/12/31 13:09:20;;;;;;;0.20;0.20;;;13.40;99.90;;;;;;4986559;28;20400;-83
2022/12/31 13:12:19;;;;;;;0.35;0.35;;;13.40;99.90;;;;;;5003572;28;20105;-84
2022/12/31 13:15:22;;;;;;;0.57;0.57;;;13.40;99.90;;;;;;4984300;28;20507;-83
2022/12/31 13:17:54;;;;;;;0.30;0.30;;;13.40;99.90;;;;;;5001036;28;20131;-81
2022/12/31 13:20:42;;;;;;;0.40;0.40;;;13.50;99.90;;;;;;4985695;28;20049;-83
2022/12/31 13:23:47;;;;;;;0.40;0.40;;;13.50;99.90;;;;;;4983056;28;20046;-82
2022/12/31 13:26:31;;;;;;;0.40;0.40;;;13.50;99.90;;;;;;4984091;28;20167;-83
2022/12/31 13:28:59;;;;;;;0.30;0.30;;;13.40;99.90;;;;;;4985911;28;20089;-85
2022/12/31 13:31:35;;;;;;;9.00;1.75;;;13.30;99.90;;;;;;4972892;28;20045;-81
2022/12/31 13:34:12;;;;;;;0.67;0.67;;;13.30;99.90;;;;;;4984503;28;20045;-82
2022/12/31 13:36:41;;;;;;;0.43;0.43;;;13.20;99.90;;;;;;4998762;28;20644;-83